Time;durP1;ratioP1;P1;durP2;ratioP2;P2;SDS_P1;SDS_P2;PMS_P1;PMS_P2;Temp;Humidity;BMP_temperature;BMP_pressure;BME280_temperature;BME280_humidity;BME280_pressure;Samples;Min_cycle;Max_cycle;Signal;HPM_P1;HPM_P2
2022/01/02 00:01:46;;;;;;;52.25;20.88;;;;;;;;;;6229654;28;20046;-83
2022/01/02 00:04:51;;;;;;;22.60;10.05;;;;;;;;;;6217358;28;20061;-84
2022/01/02 00:08:08;;;;;;;28.35;11.25;;;;;;;;;;6216456;28;20186;-83
2022/01/02 00:11:15;;;;;;;25.60;12.27;;;;;;;;;;6230801;28;20145;-82
2022/01/02 00:14:22;;;;;;;27.52;10.45;;;;;;;;;;6216837;28;20080;-82
2022/01/02 00:17:24;;;;;;;27.95;10.60;;;;;;;;;;6206716;28;20046;-83
2022/01/02 00:20:32;;;;;;;25.15;11.00;;;;;;;;;;6216356;28;20073;-82
2022/01/02 00:23:49;;;;;;;28.73;11.18;;;;;;;;;;6214705;28;20047;-84
2022/01/02 00:26:51;;;;;;;34.08;12.57;;;;;;;;;;6226592;28;20091;-82
2022/01/02 00:29:55;;;;;;;25.63;11.05;;;;;;;;;;6233220;28;20042;-82
2022/01/02 00:32:57;;;;;;;23.27;9.85;;;;;;;;;;6210469;28;20204;-82
2022/01/02 00:35:59;;;;;;;28.73;10.02;;;;;;;;;;6214752;28;20046;-83
2022/01/02 00:39:01;;;;;;;26.35;10.55;;;;;;;;;;6215117;28;20066;-82
2022/01/02 00:42:09;;;;;;;27.63;10.32;;;;;;;;;;6226892;28;20183;-83
2022/01/02 00:45:20;;;;;;;28.27;10.52;;;;;;;;;;6227891;28;20548;-84
2022/01/02 00:48:24;;;;;;;31.67;11.82;;;;;;;;;;6239436;28;20053;-83
2022/01/02 00:51:47;;;;;;;38.22;13.68;;;;;;;;;;6241107;28;20049;-82
2022/01/02 00:54:51;;;;;;;36.22;12.65;;;;;;;;;;6220486;28;20057;-81
2022/01/02 00:57:58;;;;;;;40.88;12.98;;;;;;;;;;6216781;28;20181;-82
2022/01/02 01:01:05;;;;;;;34.25;11.27;;;;;;;;;;6202809;28;20049;-84
2022/01/02 01:04:07;;;;;;;37.88;11.98;;;;;;;;;;6217495;28;20042;-83
2022/01/02 01:07:09;;;;;;;40.85;13.35;;;;;;;;;;6215951;28;20062;-82
2022/01/02 01:10:11;;;;;;;43.80;12.90;;;;;;;;;;6199682;28;20049;-84
2022/01/02 01:13:13;;;;;;;28.20;10.85;;;;;;;;;;6190190;28;20153;-83
2022/01/02 01:16:17;;;;;;;31.63;11.07;;;;;;;;;;6195294;28;20713;-82
2022/01/02 01:19:21;;;;;;;32.85;11.85;;;;;;;;;;6228932;28;20038;-83
2022/01/02 01:22:23;;;;;;;35.30;11.88;;;;;;;;;;6237189;28;20119;-83
2022/01/02 01:25:25;;;;;;;46.78;12.10;;;;;;;;;;6217891;28;20070;-83
2022/01/02 01:28:27;;;;;;;31.27;10.63;;;;;;;;;;6189347;28;20042;-83
2022/01/02 01:31:28;;;;;;;44.00;11.70;;;;;;;;;;6189122;28;20169;-83
2022/01/02 01:34:32;;;;;;;51.50;12.05;;;;;;;;;;6197053;28;20518;-83
2022/01/02 01:37:34;;;;;;;47.47;12.32;;;;;;;;;;6191704;28;20180;-83
2022/01/02 01:40:47;;;;;;;37.35;11.57;;;;;;;;;;6220905;28;20749;-85
2022/01/02 01:44:05;;;;;;;37.83;9.55;;;;;;;;;;6221479;28;20042;-82
2022/01/02 01:47:07;;;;;;;58.70;8.55;;;;;;;;;;6210797;28;20759;-81
2022/01/02 01:50:09;;;;;;;66.32;9.10;;;;;;;;;;6200248;28;20085;-83
2022/01/02 01:53:12;;;;;;;83.70;11.02;;;;;;;;;;6192358;28;20102;-81
2022/01/02 01:56:16;;;;;;;40.95;8.98;;;;;;;;;;6220364;28;20049;-81
2022/01/02 01:59:19;;;;;;;135.93;13.13;;;;;;;;;;6222022;28;20050;-81
2022/01/02 02:02:23;;;;;;;91.28;12.10;;;;;;;;;;6220048;28;20038;-83
2022/01/02 02:05:24;;;;;;;95.53;14.10;;;;;;;;;;6222392;28;20034;-81
2022/01/02 02:08:27;;;;;;;98.82;17.33;;;;;;;;;;6220438;28;20439;-83
2022/01/02 02:11:30;;;;;;;55.28;9.63;;;;;;;;;;6205472;28;20573;-83
2022/01/02 02:14:36;;;;;;;59.13;9.75;;;;;;;;;;6220816;28;20046;-82
2022/01/02 02:17:38;;;;;;;67.82;10.35;;;;;;;;;;6216775;28;20061;-80
2022/01/02 02:20:40;;;;;;;89.55;10.88;;;;;;;;;;6220887;28;20052;-81
2022/01/02 02:23:51;;;;;;;87.28;11.30;;;;;;;;;;6220651;28;20049;-83
2022/01/02 02:26:53;;;;;;;73.60;10.63;;;;;;;;;;6216430;28;20046;-83
2022/01/02 02:29:56;;;;;;;63.30;10.80;;;;;;;;;;6218439;28;20066;-83
2022/01/02 02:33:00;;;;;;;97.55;11.25;;;;;;;;;;6217978;28;20137;-82
2022/01/02 02:36:02;;;;;;;75.18;10.35;;;;;;;;;;6220935;28;20144;-80
2022/01/02 02:39:05;;;;;;;55.23;9.73;;;;;;;;;;6212080;28;20046;-83
2022/01/02 02:42:15;;;;;;;68.17;10.50;;;;;;;;;;6218282;28;20831;-83
2022/01/02 02:52:06;;;;;;;51.33;9.85;;;;;;;;;;6234902;28;20053;-83
2022/01/02 02:55:10;;;;;;;49.78;8.80;;;;;;;;;;6218991;28;20038;-83
2022/01/02 03:01:29;;;;;;;53.03;8.40;;;;;;;;;;6219351;28;20097;-83
2022/01/02 03:04:33;;;;;;;50.95;9.38;;;;;;;;;;6220581;28;20042;-83
2022/01/02 03:07:35;;;;;;;61.90;9.73;;;;;;;;;;6236626;28;20752;-85
2022/01/02 03:10:37;;;;;;;79.43;9.45;;;;;;;;;;6218594;28;20065;-83
2022/01/02 03:13:41;;;;;;;95.93;9.52;;;;;;;;;;6198105;28;20053;-81
2022/01/02 03:16:42;;;;;;;76.15;7.72;;;;;;;;;;6188717;28;20046;-82
2022/01/02 03:19:44;;;;;;;53.75;6.57;;;;;;;;;;6219919;28;20041;-81
2022/01/02 03:22:48;;;;;;;82.32;8.55;;;;;;;;;;6216196;28;20168;-82
2022/01/02 03:25:50;;;;;;;87.28;9.52;;;;;;;;;;6247549;28;20038;-83
2022/01/02 03:28:56;;;;;;;70.65;8.80;;;;;;;;;;6204902;28;20046;-82
2022/01/02 03:31:58;;;;;;;82.68;8.20;;;;;;;;;;6223334;28;20046;-83
2022/01/02 03:35:00;;;;;;;24.55;8.10;;;;;;;;;;6220207;28;20050;-82
2022/01/02 03:38:03;;;;;;;78.25;8.98;;;;;;;;;;6203051;28;20053;-84
2022/01/02 03:41:05;;;;;;;46.78;8.98;;;;;;;;;;6226986;28;20109;-82
2022/01/02 03:44:07;;;;;;;40.55;8.00;;;;;;;;;;6220449;28;20061;-83
2022/01/02 03:47:08;;;;;;;70.95;8.32;;;;;;;;;;6208859;28;20045;-84
2022/01/02 03:50:11;;;;;;;52.63;8.55;;;;;;;;;;6219138;28;20053;-84
2022/01/02 03:53:13;;;;;;;48.25;7.40;;;;;;;;;;6218334;28;20050;-83
2022/01/02 03:56:15;;;;;;;56.75;7.20;;;;;;;;;;6234302;28;20136;-86
2022/01/02 03:59:16;;;;;;;67.93;7.80;;;;;;;;;;6246258;28;20046;-85
2022/01/02 04:02:18;;;;;;;87.45;8.90;;;;;;;;;;6220680;28;20050;-82
2022/01/02 04:05:20;;;;;;;76.80;9.68;;;;;;;;;;6225809;28;20061;-84
2022/01/02 04:08:23;;;;;;;55.75;7.93;;;;;;;;;;6219617;28;20095;-82
2022/01/02 04:11:26;;;;;;;20.45;5.82;;;;;;;;;;6205233;28;20052;-84
2022/01/02 04:14:28;;;;;;;30.70;6.83;;;;;;;;;;6228289;28;20128;-83
2022/01/02 04:17:32;;;;;;;39.05;7.75;;;;;;;;;;6213686;28;20121;-82
2022/01/02 04:20:34;;;;;;;72.47;8.18;;;;;;;;;;6243740;28;20046;-84
2022/01/02 04:23:38;;;;;;;26.52;6.35;;;;;;;;;;6243196;28;20041;-84
2022/01/02 04:26:40;;;;;;;45.88;8.30;;;;;;;;;;6225079;28;20564;-84
2022/01/02 04:29:41;;;;;;;27.10;6.03;;;;;;;;;;6216924;28;20088;-83
2022/01/02 04:32:43;;;;;;;24.10;6.53;;;;;;;;;;6194654;28;20404;-84
2022/01/02 04:35:45;;;;;;;21.25;7.10;;;;;;;;;;6193785;28;20420;-84
2022/01/02 04:38:47;;;;;;;21.80;6.65;;;;;;;;;;6208633;28;20173;-83
2022/01/02 04:41:49;;;;;;;38.10;7.72;;;;;;;;;;6225504;28;20113;-83
2022/01/02 04:44:51;;;;;;;34.78;7.60;;;;;;;;;;6201775;28;20073;-83
2022/01/02 04:47:53;;;;;;;29.02;6.18;;;;;;;;;;6238006;28;20566;-83
2022/01/02 04:50:55;;;;;;;48.28;7.82;;;;;;;;;;6243080;28;20056;-81
2022/01/02 04:53:57;;;;;;;26.35;6.57;;;;;;;;;;6219419;28;20049;-84
2022/01/02 04:56:58;;;;;;;34.97;7.10;;;;;;;;;;6238991;28;20041;-83
2022/01/02 05:00:00;;;;;;;31.58;7.50;;;;;;;;;;6237265;28;20061;-85
2022/01/02 05:03:03;;;;;;;63.03;9.80;;;;;;;;;;6223164;28;20034;-83
2022/01/02 05:06:06;;;;;;;26.73;8.10;;;;;;;;;;6243130;28;20049;-81
2022/01/02 05:09:09;;;;;;;;;;;;;;;;;;6227725;28;20748;-84
2022/01/02 05:12:11;;;;;;;35.17;6.95;;;;;;;;;;6240681;28;19928;-82
2022/01/02 05:15:13;;;;;;;16.92;6.72;;;;;;;;;;6234248;28;20498;-84
2022/01/02 05:18:15;;;;;;;24.73;7.05;;;;;;;;;;6217408;28;20046;-84
2022/01/02 05:21:17;;;;;;;31.63;6.38;;;;;;;;;;6220840;28;20080;-82
2022/01/02 05:24:19;;;;;;;29.95;8.68;;;;;;;;;;6223894;28;20033;-84
2022/01/02 05:27:21;;;;;;;35.58;11.25;;;;;;;;;;6243231;28;20049;-82
2022/01/02 05:30:23;;;;;;;16.63;7.95;;;;;;;;;;6211862;28;20521;-82
2022/01/02 05:33:25;;;;;;;20.35;7.68;;;;;;;;;;6233280;28;20045;-83
2022/01/02 05:36:27;;;;;;;17.60;6.90;;;;;;;;;;6217569;28;20201;-84
2022/01/02 05:39:29;;;;;;;14.57;6.70;;;;;;;;;;6217278;28;20038;-84
2022/01/02 05:42:32;;;;;;;28.30;6.78;;;;;;;;;;6216188;28;20121;-82
2022/01/02 05:45:34;;;;;;;38.03;7.90;;;;;;;;;;6209886;28;20050;-83
2022/01/02 05:48:36;;;;;;;24.88;7.07;;;;;;;;;;6200293;28;20060;-83
2022/01/02 05:51:39;;;;;;;18.75;7.45;;;;;;;;;;6217305;28;20054;-83
2022/01/02 05:54:40;;;;;;;16.85;7.00;;;;;;;;;;6224708;28;20038;-82
2022/01/02 05:57:42;;;;;;;18.05;7.05;;;;;;;;;;6223635;28;20045;-84
2022/01/02 06:00:44;;;;;;;16.38;7.30;;;;;;;;;;6215878;28;20045;-84
2022/01/02 06:03:46;;;;;;;17.35;7.25;;;;;;;;;;6227651;28;20049;-83
2022/01/02 06:06:48;;;;;;;14.17;5.97;;;;;;;;;;6244108;28;20456;-83
2022/01/02 06:09:53;;;;;;;14.05;6.85;;;;;;;;;;6235338;28;20042;-84
2022/01/02 06:12:55;;;;;;;16.70;7.95;;;;;;;;;;6230045;28;20426;-83
2022/01/02 06:15:57;;;;;;;16.60;6.45;;;;;;;;;;6201261;28;20046;-83
2022/01/02 06:18:58;;;;;;;14.20;6.20;;;;;;;;;;6214612;28;20042;-82
2022/01/02 06:22:01;;;;;;;13.40;5.60;;;;;;;;;;6212471;28;20499;-82
2022/01/02 06:25:04;;;;;;;;;;;;;;;;;;6187867;28;20050;-82
2022/01/02 06:28:05;;;;;;;11.27;5.70;;;;;;;;;;6197090;28;19922;-83
2022/01/02 06:31:09;;;;;;;16.48;6.65;;;;;;;;;;6212620;28;20050;-84
2022/01/02 06:34:11;;;;;;;17.73;8.07;;;;;;;;;;6222008;28;20050;-82
2022/01/02 06:37:13;;;;;;;18.17;7.72;;;;;;;;;;6222274;28;20076;-82
2022/01/02 06:40:14;;;;;;;20.98;9.80;;;;;;;;;;6217230;28;20053;-82
2022/01/02 06:43:17;;;;;;;18.85;8.70;;;;;;;;;;6222626;28;20100;-83
2022/01/02 06:46:20;;;;;;;17.38;7.97;;;;;;;;;;6220090;28;20050;-82
2022/01/02 06:49:21;;;;;;;18.63;8.75;;;;;;;;;;6221110;28;20517;-83
2022/01/02 06:52:26;;;;;;;17.25;7.88;;;;;;;;;;6221135;28;20038;-82
2022/01/02 06:55:28;;;;;;;18.58;8.13;;;;;;;;;;6228570;28;20052;-82
2022/01/02 06:58:30;;;;;;;18.40;9.05;;;;;;;;;;6173855;28;20050;-84
2022/01/02 07:01:32;;;;;;;21.20;9.68;;;;;;;;;;6192446;28;20052;-84
2022/01/02 07:04:34;;;;;;;22.60;10.75;;;;;;;;;;6222756;28;20049;-84
2022/01/02 07:07:41;;;;;;;22.98;10.38;;;;;;;;;;6205374;28;20086;-85
2022/01/02 07:10:43;;;;;;;25.48;10.77;;;;;;;;;;6206291;28;20037;-83
2022/01/02 07:13:45;;;;;;;23.67;10.07;;;;;;;;;;6219982;28;20054;-84
2022/01/02 07:16:46;;;;;;;24.52;10.68;;;;;;;;;;6223230;28;20053;-83
2022/01/02 07:19:50;;;;;;;22.92;10.85;;;;;;;;;;6187901;28;20047;-81
2022/01/02 07:22:52;;;;;;;22.05;10.35;;;;;;;;;;6188813;28;20065;-82
2022/01/02 07:25:53;;;;;;;25.63;10.65;;;;;;;;;;6204475;28;20120;-81
2022/01/02 07:28:55;;;;;;;26.42;10.93;;;;;;;;;;6208978;28;20079;-83
2022/01/02 07:31:57;;;;;;;24.13;10.50;;;;;;;;;;6186840;28;20102;-83
2022/01/02 07:34:59;;;;;;;27.83;11.50;;;;;;;;;;6224371;28;20177;-81
2022/01/02 07:38:00;;;;;;;26.60;11.85;;;;;;;;;;6233256;28;20120;-83
2022/01/02 07:41:02;;;;;;;25.23;11.98;;;;;;;;;;6219558;28;20506;-82
2022/01/02 07:44:04;;;;;;;28.52;11.40;;;;;;;;;;6219835;28;20819;-82
2022/01/02 07:47:06;;;;;;;28.23;12.20;;;;;;;;;;6219655;28;20187;-81
2022/01/02 07:50:08;;;;;;;29.73;13.00;;;;;;;;;;6220681;28;20041;-82
2022/01/02 07:53:10;;;;;;;31.75;15.73;;;;;;;;;;6209966;28;20049;-81
2022/01/02 07:56:18;;;;;;;35.40;15.55;;;;;;;;;;6226079;28;20073;-82
2022/01/02 07:59:20;;;;;;;39.03;17.13;;;;;;;;;;6223011;28;20448;-82
2022/01/02 08:02:21;;;;;;;41.17;17.80;;;;;;;;;;6233112;28;20128;-82
2022/01/02 08:05:23;;;;;;;39.00;18.17;;;;;;;;;;6221036;28;20045;-82
2022/01/02 08:08:26;;;;;;;55.15;27.73;;;;;;;;;;6220399;28;20137;-82
2022/01/02 08:11:27;;;;;;;44.55;21.90;;;;;;;;;;6224909;28;20038;-85
2022/01/02 08:14:49;;;;;;;38.67;17.38;;;;;;;;;;6212648;28;20065;-85
2022/01/02 08:17:50;;;;;;;43.05;17.42;;;;;;;;;;6210490;28;20068;-84
2022/01/02 08:20:52;;;;;;;47.10;23.73;;;;;;;;;;6213972;28;20034;-85
2022/01/02 08:23:54;;;;;;;40.58;16.40;;;;;;;;;;6215000;28;20056;-82
2022/01/02 08:26:55;;;;;;;38.45;14.75;;;;;;;;;;6238834;28;20077;-83
2022/01/02 08:29:57;;;;;;;37.40;18.23;;;;;;;;;;6211591;28;21317;-83
2022/01/02 08:32:58;;;;;;;39.38;17.25;;;;;;;;;;6213484;28;21268;-83
2022/01/02 08:36:00;;;;;;;48.13;20.77;;;;;;;;;;6218836;28;20052;-84
2022/01/02 08:39:02;;;;;;;46.55;18.65;;;;;;;;;;6192460;28;20086;-84
2022/01/02 08:42:04;;;;;;;39.30;18.15;;;;;;;;;;6190590;28;20121;-81
2022/01/02 08:45:06;;;;;;;86.32;33.28;;;;;;;;;;6195167;28;20137;-83
2022/01/02 08:48:08;;;;;;;61.38;26.98;;;;;;;;;;6201503;28;20113;-82
2022/01/02 08:51:12;;;;;;;60.53;32.13;;;;;;;;;;6198860;28;20067;-82
2022/01/02 08:54:13;;;;;;;;;;;;;;;;;;6194134;28;20073;-84
2022/01/02 08:57:15;;;;;;;35.00;14.80;;;;;;;;;;6193430;28;20010;-83
2022/01/02 09:00:16;;;;;;;41.03;17.17;;;;;;;;;;6187890;28;20167;-83
2022/01/02 09:03:18;;;;;;;41.55;17.50;;;;;;;;;;6202753;28;20050;-81
2022/01/02 09:06:20;;;;;;;37.38;16.70;;;;;;;;;;6196052;28;20042;-82
2022/01/02 09:09:21;;;;;;;42.03;16.65;;;;;;;;;;6201434;28;20050;-82
2022/01/02 09:12:23;;;;;;;39.90;17.55;;;;;;;;;;6215598;28;20061;-83
2022/01/02 09:15:25;;;;;;;42.53;17.00;;;;;;;;;;6184137;28;20055;-84
2022/01/02 09:18:27;;;;;;;34.63;16.40;;;;;;;;;;6194225;28;20046;-83
2022/01/02 09:21:30;;;;;;;38.88;17.27;;;;;;;;;;6191900;28;20295;-83
2022/01/02 09:24:33;;;;;;;42.03;18.95;;;;;;;;;;6167313;28;20043;-82
2022/01/02 09:27:39;;;;;;;38.50;16.98;;;;;;;;;;6197591;28;20407;-83
2022/01/02 09:30:42;;;;;;;36.22;16.17;;;;;;;;;;6174286;28;20566;-83
2022/01/02 09:33:43;;;;;;;40.00;16.95;;;;;;;;;;6193489;28;20133;-83
2022/01/02 09:36:45;;;;;;;42.80;19.80;;;;;;;;;;6199238;28;20121;-83
2022/01/02 09:39:46;;;;;;;41.50;20.45;;;;;;;;;;6192849;28;20042;-82
2022/01/02 09:42:48;;;;;;;38.63;17.27;;;;;;;;;;6195698;28;20120;-82
2022/01/02 09:45:50;;;;;;;39.58;16.60;;;;;;;;;;6192822;28;20045;-83
2022/01/02 09:48:53;;;;;;;36.58;16.92;;;;;;;;;;6213089;28;20519;-83
2022/01/02 09:51:55;;;;;;;38.47;17.65;;;;;;;;;;6213701;28;20250;-82
2022/01/02 09:54:56;;;;;;;62.72;26.45;;;;;;;;;;6194879;28;20057;-82
2022/01/02 09:57:59;;;;;;;43.05;20.70;;;;;;;;;;6198336;28;20105;-83
2022/01/02 10:01:01;;;;;;;36.83;16.50;;;;;;;;;;6192671;28;20049;-83
2022/01/02 10:04:07;;;;;;;35.85;17.48;;;;;;;;;;6197040;28;20121;-83
2022/01/02 10:07:26;;;;;;;37.83;17.67;;;;;;;;;;6199696;28;20137;-83
2022/01/02 10:10:33;;;;;;;37.08;17.30;;;;;;;;;;6213424;28;20125;-83
2022/01/02 10:13:44;;;;;;;35.45;17.20;;;;;;;;;;6218747;28;20182;-83
2022/01/02 10:16:45;;;;;;;54.65;22.58;;;;;;;;;;6201069;28;20053;-81
2022/01/02 10:19:47;;;;;;;32.78;15.25;;;;;;;;;;6199558;28;20073;-82
2022/01/02 10:23:20;;;;;;;31.30;17.60;;;;;;;;;;6197368;28;20066;-81
2022/01/02 10:26:28;;;;;;;27.58;14.23;;;;;;;;;;6173356;28;20093;-83
2022/01/02 10:29:51;;;;;;;27.30;14.35;;;;;;;;;;6193931;28;20084;-82
2022/01/02 10:32:55;;;;;;;24.10;12.95;;;;;;;;;;6213581;28;20133;-82
2022/01/02 10:36:00;;;;;;;22.33;11.63;;;;;;;;;;6219490;28;20141;-82
2022/01/02 10:39:01;;;;;;;26.83;13.00;;;;;;;;;;6214063;28;20482;-83
2022/01/02 10:42:16;;;;;;;20.63;10.95;;;;;;;;;;6219090;28;20161;-82
2022/01/02 10:45:43;;;;;;;24.95;12.52;;;;;;;;;;6217679;28;20192;-82
2022/01/02 10:48:45;;;;;;;17.92;10.07;;;;;;;;;;6234429;28;20054;-82
2022/01/02 10:51:46;;;;;;;20.20;11.45;;;;;;;;;;6219439;28;20180;-82
2022/01/02 10:54:49;;;;;;;18.17;9.32;;;;;;;;;;6199957;28;20068;-82
2022/01/02 10:57:53;;;;;;;17.80;9.80;;;;;;;;;;6219895;28;20495;-81
2022/01/02 11:01:03;;;;;;;21.55;13.10;;;;;;;;;;6209580;28;20041;-83
2022/01/02 11:04:05;;;;;;;31.05;16.13;;;;;;;;;;6217843;28;20053;-83
2022/01/02 11:07:07;;;;;;;100.68;32.78;;;;;;;;;;6218733;28;20042;-81
2022/01/02 11:10:10;;;;;;;77.70;31.02;;;;;;;;;;6216726;28;20037;-83
2022/01/02 11:13:13;;;;;;;24.77;13.07;;;;;;;;;;6218396;28;20077;-84
2022/01/02 11:16:15;;;;;;;29.20;16.20;;;;;;;;;;6215931;28;20049;-82
2022/01/02 11:19:18;;;;;;;26.52;12.85;;;;;;;;;;6223404;28;20053;-82
2022/01/02 11:22:33;;;;;;;28.92;14.45;;;;;;;;;;6223265;28;20153;-82
2022/01/02 11:25:56;;;;;;;28.58;15.77;;;;;;;;;;6216534;28;20041;-81
2022/01/02 11:28:57;;;;;;;25.85;14.43;;;;;;;;;;6224031;28;20061;-81
2022/01/02 11:31:59;;;;;;;37.83;18.55;;;;;;;;;;6220349;28;20044;-81
2022/01/02 11:35:26;;;;;;;28.40;15.07;;;;;;;;;;6220672;28;20046;-81
2022/01/02 11:38:43;;;;;;;27.15;14.23;;;;;;;;;;6222805;28;20045;-79
2022/01/02 11:41:46;;;;;;;23.20;12.38;;;;;;;;;;6206225;28;20096;-79
2022/01/02 11:44:49;;;;;;;20.05;11.30;;;;;;;;;;6216279;28;20077;-82
2022/01/02 11:47:50;;;;;;;18.67;9.55;;;;;;;;;;6220206;28;20042;-78
2022/01/02 11:50:53;;;;;;;15.85;8.85;;;;;;;;;;6225714;28;20053;-79
2022/01/02 11:53:56;;;;;;;11.45;7.00;;;;;;;;;;6222262;28;20042;-80
2022/01/02 11:57:14;;;;;;;12.20;7.45;;;;;;;;;;6215161;28;20058;-78
2022/01/02 12:00:32;;;;;;;12.57;6.85;;;;;;;;;;6190345;28;20118;-79
2022/01/02 12:03:46;;;;;;;12.68;8.57;;;;;;;;;;6192925;28;20057;-79
2022/01/02 12:06:52;;;;;;;10.27;6.70;;;;;;;;;;6201659;28;20070;-80
2022/01/02 12:09:53;;;;;;;10.82;7.10;;;;;;;;;;6189910;28;20492;-80
2022/01/02 12:13:13;;;;;;;10.05;6.80;;;;;;;;;;6236813;28;20073;-80
2022/01/02 12:16:16;;;;;;;9.55;6.03;;;;;;;;;;6218973;28;20128;-80
2022/01/02 12:19:18;;;;;;;;;;;;;;;;;;6197612;28;20106;-80
2022/01/02 12:22:20;;;;;;;10.45;7.30;;;;;;;;;;6192934;28;19921;-79
2022/01/02 12:25:23;;;;;;;7.40;5.10;;;;;;;;;;6191916;28;20053;-80
2022/01/02 12:28:29;;;;;;;8.40;4.97;;;;;;;;;;6192975;28;20042;-80
2022/01/02 12:31:38;;;;;;;8.15;5.05;;;;;;;;;;6160230;28;20523;-80
2022/01/02 12:34:42;;;;;;;6.75;4.57;;;;;;;;;;6190257;28;20813;-80
2022/01/02 12:38:02;;;;;;;6.95;3.83;;;;;;;;;;6179738;28;20092;-80
2022/01/02 12:41:04;;;;;;;5.78;3.85;;;;;;;;;;6181602;28;20046;-80
2022/01/02 12:44:08;;;;;;;14.55;6.63;;;;;;;;;;6190027;28;20038;-81
2022/01/02 12:47:13;;;;;;;5.85;4.10;;;;;;;;;;6182453;28;20137;-81
2022/01/02 12:50:22;;;;;;;6.50;3.10;;;;;;;;;;6190996;28;20042;-80
2022/01/02 12:53:24;;;;;;;5.82;3.58;;;;;;;;;;6193805;28;20041;-80
2022/01/02 12:56:39;;;;;;;5.18;3.15;;;;;;;;;;6219404;28;20069;-81
2022/01/02 12:59:48;;;;;;;5.00;3.00;;;;;;;;;;6214485;28;20045;-80
2022/01/02 13:02:52;;;;;;;5.05;3.28;;;;;;;;;;6185366;28;20072;-80
2022/01/02 13:05:54;;;;;;;8.32;5.72;;;;;;;;;;6191706;28;20097;-81
2022/01/02 13:08:56;;;;;;;6.10;3.33;;;;;;;;;;6187273;28;20118;-80
2022/01/02 13:11:59;;;;;;;5.00;2.90;;;;;;;;;;6191298;28;20053;-79
2022/01/02 13:15:13;;;;;;;;;;;;;;;;;;6202181;28;20126;-80
2022/01/02 13:18:15;;;;;;;4.65;3.95;;;;;;;;;;6167629;28;19949;-79
2022/01/02 13:21:17;;;;;;;6.40;3.63;;;;;;;;;;6167626;28;20058;-79
2022/01/02 13:24:37;;;;;;;12.30;5.63;;;;;;;;;;6173992;28;20183;-79
2022/01/02 13:27:53;;;;;;;4.15;2.85;;;;;;;;;;6191241;28;20110;-79
2022/01/02 13:30:58;;;;;;;4.65;2.63;;;;;;;;;;6192793;28;20038;-83
2022/01/02 13:34:01;;;;;;;4.20;3.05;;;;;;;;;;6195833;28;20106;-81
2022/01/02 13:37:03;;;;;;;3.55;2.40;;;;;;;;;;6192293;28;20097;-81
2022/01/02 13:40:16;;;;;;;4.25;2.47;;;;;;;;;;6190296;28;20126;-81
2022/01/02 13:43:20;;;;;;;;;;;;;;;;;;6207233;28;20128;-79
2022/01/02 13:46:23;;;;;;;4.15;2.45;;;;;;;;;;6199060;28;19928;-80
2022/01/02 13:49:48;;;;;;;4.30;2.10;;;;;;;;;;6205168;28;20105;-80
2022/01/02 13:52:53;;;;;;;3.92;2.30;;;;;;;;;;6198678;28;20153;-79
2022/01/02 13:56:07;;;;;;;4.30;2.42;;;;;;;;;;6193393;28;20129;-80
2022/01/02 13:59:11;;;;;;;3.65;2.38;;;;;;;;;;6198170;28;20085;-80
2022/01/02 14:02:13;;;;;;;5.15;2.92;;;;;;;;;;6213244;28;20046;-81
2022/01/02 14:05:15;;;;;;;5.22;2.95;;;;;;;;;;6213651;28;20042;-79
2022/01/02 14:08:18;;;;;;;6.55;2.85;;;;;;;;;;6207483;28;20930;-81
2022/01/02 14:11:31;;;;;;;3.85;2.60;;;;;;;;;;6219343;28;20196;-81
2022/01/02 14:14:49;;;;;;;5.95;3.03;;;;;;;;;;6203862;28;20057;-80
2022/01/02 14:17:50;;;;;;;5.70;2.90;;;;;;;;;;6212062;28;20085;-80
2022/01/02 14:21:00;;;;;;;4.18;2.58;;;;;;;;;;6207325;28;20050;-80
2022/01/02 14:24:03;;;;;;;2.92;2.22;;;;;;;;;;6207950;28;20411;-81
2022/01/02 14:27:07;;;;;;;3.13;2.53;;;;;;;;;;6210098;28;20136;-82
2022/01/02 14:30:09;;;;;;;3.95;3.00;;;;;;;;;;6208035;28;20042;-81
2022/01/02 14:33:10;;;;;;;5.25;2.80;;;;;;;;;;6207052;28;20052;-82
2022/01/02 14:36:12;;;;;;;5.25;2.47;;;;;;;;;;6213528;28;20418;-82
2022/01/02 14:39:14;;;;;;;5.93;2.50;;;;;;;;;;6209106;28;20114;-79
2022/01/02 14:42:16;;;;;;;4.88;2.80;;;;;;;;;;6211958;28;20046;-82
2022/01/02 14:45:18;;;;;;;6.03;3.00;;;;;;;;;;6206728;28;20133;-80
2022/01/02 14:48:23;;;;;;;3.97;2.50;;;;;;;;;;6194410;28;20082;-83
2022/01/02 14:51:24;;;;;;;3.97;2.40;;;;;;;;;;6194380;28;20073;-83
2022/01/02 14:54:26;;;;;;;4.53;2.67;;;;;;;;;;6192453;28;20065;-82
2022/01/02 14:57:29;;;;;;;6.23;2.80;;;;;;;;;;6195239;28;20492;-82
2022/01/02 15:00:31;;;;;;;5.60;2.85;;;;;;;;;;6172322;28;20420;-81
2022/01/02 15:03:34;;;;;;;3.80;2.53;;;;;;;;;;6209535;28;20050;-81
2022/01/02 15:06:37;;;;;;;4.97;2.72;;;;;;;;;;6223736;28;20511;-81
2022/01/02 15:09:59;;;;;;;;;;;;;;;;;;6212807;28;20112;-81
2022/01/02 15:13:01;;;;;;;5.85;2.80;;;;;;;;;;6222477;28;19944;-81
2022/01/02 15:16:03;;;;;;;4.45;3.10;;;;;;;;;;6218562;28;20155;-83
2022/01/02 15:19:06;;;;;;;5.53;2.87;;;;;;;;;;6211268;28;20500;-80
2022/01/02 15:22:08;;;;;;;4.57;2.70;;;;;;;;;;6207060;28;20499;-83
2022/01/02 15:25:09;;;;;;;8.45;3.00;;;;;;;;;;6223876;28;20086;-82
2022/01/02 15:28:13;;;;;;;5.78;3.35;;;;;;;;;;6223761;28;20050;-81
2022/01/02 15:31:16;;;;;;;4.10;3.42;;;;;;;;;;6227538;28;20083;-82
2022/01/02 15:34:18;;;;;;;4.80;3.05;;;;;;;;;;6239648;28;20129;-81
2022/01/02 15:37:19;;;;;;;7.30;2.97;;;;;;;;;;6247676;28;20068;-82
2022/01/02 15:40:22;;;;;;;6.30;3.00;;;;;;;;;;6218455;28;20229;-81
2022/01/02 15:43:24;;;;;;;5.55;2.70;;;;;;;;;;6228726;28;20130;-81
2022/01/02 15:46:25;;;;;;;5.38;3.05;;;;;;;;;;6228198;28;20171;-81
2022/01/02 15:49:27;;;;;;;5.22;2.75;;;;;;;;;;6237877;28;20044;-81
2022/01/02 15:52:29;;;;;;;6.03;2.65;;;;;;;;;;6210008;28;20038;-83
2022/01/02 15:55:33;;;;;;;6.35;3.05;;;;;;;;;;6222793;28;20150;-82
2022/01/02 15:58:50;;;;;;;5.35;2.53;;;;;;;;;;6214637;28;20046;-82
2022/01/02 16:01:52;;;;;;;4.72;2.60;;;;;;;;;;6224101;28;20037;-80
2022/01/02 16:04:54;;;;;;;7.68;3.20;;;;;;;;;;6241487;28;20041;-80
2022/01/02 16:07:55;;;;;;;4.93;2.50;;;;;;;;;;6199771;28;20094;-82
2022/01/02 16:10:57;;;;;;;6.00;2.88;;;;;;;;;;6201809;28;20053;-81
2022/01/02 16:13:59;;;;;;;6.15;3.33;;;;;;;;;;6189065;28;20049;-84
2022/01/02 16:17:00;;;;;;;12.02;5.15;;;;;;;;;;6184510;28;20046;-83
2022/01/02 16:20:03;;;;;;;9.85;7.88;;;;;;;;;;6191661;28;20101;-83
2022/01/02 16:23:04;;;;;;;5.33;2.77;;;;;;;;;;6225642;28;20117;-83
2022/01/02 16:26:07;;;;;;;6.75;2.85;;;;;;;;;;6211976;28;20096;-83
2022/01/02 16:29:09;;;;;;;9.75;3.78;;;;;;;;;;6174709;28;20066;-84
2022/01/02 16:32:10;;;;;;;6.57;3.30;;;;;;;;;;6201889;28;20058;-83
2022/01/02 16:35:12;;;;;;;4.35;3.17;;;;;;;;;;6231450;28;20724;-82
2022/01/02 16:38:15;;;;;;;9.95;4.53;;;;;;;;;;6235298;28;20046;-81
2022/01/02 16:41:20;;;;;;;4.38;3.05;;;;;;;;;;6213090;28;20184;-82
2022/01/02 16:44:22;;;;;;;3.95;2.47;;;;;;;;;;6219394;28;20099;-82
2022/01/02 16:47:23;;;;;;;3.45;2.55;;;;;;;;;;6216909;28;20188;-82
2022/01/02 16:50:26;;;;;;;6.05;2.90;;;;;;;;;;6215894;28;20044;-82
2022/01/02 16:53:28;;;;;;;3.97;2.80;;;;;;;;;;6212528;28;20046;-83
2022/01/02 16:56:29;;;;;;;4.30;2.42;;;;;;;;;;6197069;28;20048;-83
2022/01/02 16:59:31;;;;;;;5.30;3.20;;;;;;;;;;6206894;28;20066;-80
2022/01/02 17:02:33;;;;;;;6.17;3.43;;;;;;;;;;6189225;28;20042;-81
2022/01/02 17:05:36;;;;;;;4.90;3.10;;;;;;;;;;6187451;28;20065;-82
2022/01/02 17:08:38;;;;;;;6.75;4.00;;;;;;;;;;6190048;28;20070;-82
2022/01/02 17:11:39;;;;;;;8.82;4.38;;;;;;;;;;6178779;28;20054;-82
2022/01/02 17:14:41;;;;;;;7.30;3.70;;;;;;;;;;6189886;28;20042;-83
2022/01/02 17:17:43;;;;;;;6.40;3.33;;;;;;;;;;6190929;28;20050;-82
2022/01/02 17:20:45;;;;;;;6.57;3.53;;;;;;;;;;6237265;28;20629;-81
2022/01/02 17:23:47;;;;;;;5.15;2.72;;;;;;;;;;6214529;28;20060;-83
2022/01/02 17:26:50;;;;;;;6.90;3.40;;;;;;;;;;6192893;28;20089;-81
2022/01/02 17:29:51;;;;;;;5.88;3.28;;;;;;;;;;6189167;28;20173;-81
2022/01/02 17:32:53;;;;;;;6.40;3.20;;;;;;;;;;6217832;28;20488;-80
2022/01/02 17:35:55;;;;;;;6.07;3.63;;;;;;;;;;6216069;28;20080;-80
2022/01/02 17:38:57;;;;;;;4.80;2.92;;;;;;;;;;6205296;28;20047;-83
2022/01/02 17:42:04;;;;;;;8.20;3.35;;;;;;;;;;6192690;28;20046;-81
2022/01/02 17:45:07;;;;;;;10.25;2.47;;;;;;;;;;6211311;28;20046;-82
2022/01/02 17:48:10;;;;;;;6.03;3.33;;;;;;;;;;6181673;28;20057;-81
2022/01/02 17:51:12;;;;;;;7.53;4.20;;;;;;;;;;6185014;28;20082;-83
2022/01/02 17:54:15;;;;;;;6.95;3.63;;;;;;;;;;6193436;28;20054;-83
2022/01/02 17:57:17;;;;;;;6.35;3.72;;;;;;;;;;6218479;28;20146;-84
2022/01/02 18:00:18;;;;;;;5.85;2.85;;;;;;;;;;6189109;28;20110;-82
2022/01/02 18:03:20;;;;;;;4.78;3.13;;;;;;;;;;6188714;28;20132;-82
2022/01/02 18:06:22;;;;;;;7.68;2.88;;;;;;;;;;6192491;28;20050;-83
2022/01/02 18:09:29;;;;;;;5.47;2.73;;;;;;;;;;6193820;28;20065;-81
2022/01/02 18:12:35;;;;;;;4.43;3.10;;;;;;;;;;6188094;28;20453;-84
2022/01/02 18:15:37;;;;;;;5.22;2.63;;;;;;;;;;6202744;28;20174;-83
2022/01/02 18:18:40;;;;;;;5.50;2.75;;;;;;;;;;6217769;28;20140;-80